Time;durP1;ratioP1;P1;durP2;ratioP2;P2;SDS_P1;SDS_P2;PMS_P1;PMS_P2;Temp;Humidity;BMP_temperature;BMP_pressure;BME280_temperature;BME280_humidity;BME280_pressure;Samples;Min_cycle;Max_cycle;Signal;HPM_P1;HPM_P2
2024/04/14 00:00:17;;;;;;;6.6;5.8;;;;;;;;;;;;;
2024/04/14 00:02:42;;;;;;;8.4;4.9;;;;;;;;;;;;;
2024/04/14 00:05:07;;;;;;;6.6;4;;;;;;;;;;;;;
2024/04/14 00:07:32;;;;;;;5.4;3.3;;;;;;;;;;;;;
2024/04/14 00:09:58;;;;;;;5.9;3.5;;;;;;;;;;;;;
2024/04/14 00:12:23;;;;;;;5.1;3.3;;;;;;;;;;;;;
2024/04/14 00:14:48;;;;;;;7.5;3.5;;;;;;;;;;;;;
2024/04/14 00:17:13;;;;;;;4.5;2.9;;;;;;;;;;;;;
2024/04/14 00:19:38;;;;;;;4.8;2.5;;;;;;;;;;;;;
2024/04/14 00:22:03;;;;;;;6;2.7;;;;;;;;;;;;;
2024/04/14 00:24:29;;;;;;;6.1;2.9;;;;;;;;;;;;;
2024/04/14 00:26:53;;;;;;;4.6;2.7;;;;;;;;;;;;;
2024/04/14 00:29:19;;;;;;;3.5;2.7;;;;;;;;;;;;;
2024/04/14 00:31:44;;;;;;;3;2.5;;;;;;;;;;;;;
2024/04/14 00:34:10;;;;;;;3.8;1.9;;;;;;;;;;;;;
2024/04/14 00:36:34;;;;;;;2.8;2;;;;;;;;;;;;;
2024/04/14 00:38:59;;;;;;;3.9;2.3;;;;;;;;;;;;;
2024/04/14 00:41:24;;;;;;;2.9;2.4;;;;;;;;;;;;;
2024/04/14 00:43:49;;;;;;;4.4;2.3;;;;;;;;;;;;;
2024/04/14 00:46:14;;;;;;;4.5;2.4;;;;;;;;;;;;;
2024/04/14 00:48:39;;;;;;;3.7;2.2;;;;;;;;;;;;;
2024/04/14 00:51:05;;;;;;;2.9;1.9;;;;;;;;;;;;;
2024/04/14 00:53:31;;;;;;;2.7;2.2;;;;;;;;;;;;;
2024/04/14 00:55:55;;;;;;;3.5;2.1;;;;;;;;;;;;;
2024/04/14 00:58:20;;;;;;;3.1;1.9;;;;;;;;;;;;;
2024/04/14 01:00:45;;;;;;;2.1;1.9;;;;;;;;;;;;;
2024/04/14 01:03:10;;;;;;;3.5;1.9;;;;;;;;;;;;;
2024/04/14 01:05:35;;;;;;;3.5;1.9;;;;;;;;;;;;;
2024/04/14 01:08:00;;;;;;;3.3;1.9;;;;;;;;;;;;;
2024/04/14 01:10:28;;;;;;;3;2.2;;;;;;;;;;;;;
2024/04/14 01:12:50;;;;;;;3.7;2.4;;;;;;;;;;;;;
2024/04/14 01:15:16;;;;;;;3.4;2.7;;;;;;;;;;;;;
2024/04/14 01:17:41;;;;;;;4.1;2.4;;;;;;;;;;;;;
2024/04/14 01:20:06;;;;;;;3.4;2.4;;;;;;;;;;;;;
2024/04/14 01:22:31;;;;;;;2.7;1.8;;;;;;;;;;;;;
2024/04/14 01:24:56;;;;;;;1.8;1.6;;;;;;;;;;;;;
2024/04/14 01:27:21;;;;;;;1.9;1.5;;;;;;;;;;;;;
2024/04/14 01:29:46;;;;;;;4.6;2.2;;;;;;;;;;;;;
2024/04/14 01:32:11;;;;;;;3;1.9;;;;;;;;;;;;;
2024/04/14 01:34:36;;;;;;;2.4;1.8;;;;;;;;;;;;;
2024/04/14 01:37:01;;;;;;;3.5;1.8;;;;;;;;;;;;;
2024/04/14 01:39:27;;;;;;;2.4;1.8;;;;;;;;;;;;;
2024/04/14 01:41:52;;;;;;;2.4;1.5;;;;;;;;;;;;;
2024/04/14 01:44:17;;;;;;;3.6;1.2;;;;;;;;;;;;;
2024/04/14 01:46:42;;;;;;;3.3;1.4;;;;;;;;;;;;;
2024/04/14 01:49:08;;;;;;;3;1.6;;;;;;;;;;;;;
2024/04/14 01:51:33;;;;;;;2.1;1.4;;;;;;;;;;;;;
2024/04/14 01:53:58;;;;;;;2.8;1.4;;;;;;;;;;;;;
2024/04/14 01:56:23;;;;;;;2;1.5;;;;;;;;;;;;;
2024/04/14 01:58:49;;;;;;;2;1.3;;;;;;;;;;;;;
2024/04/14 02:01:14;;;;;;;2.7;1.3;;;;;;;;;;;;;
2024/04/14 02:03:41;;;;;;;1.5;1.3;;;;;;;;;;;;;
2024/04/14 02:06:03;;;;;;;3.5;1.4;;;;;;;;;;;;;
2024/04/14 02:08:29;;;;;;;1.2;1.1;;;;;;;;;;;;;
2024/04/14 02:10:54;;;;;;;1.9;1.2;;;;;;;;;;;;;
2024/04/14 02:13:19;;;;;;;1.9;1.1;;;;;;;;;;;;;
2024/04/14 02:15:44;;;;;;;1.7;1.3;;;;;;;;;;;;;
2024/04/14 02:18:09;;;;;;;4.8;1.7;;;;;;;;;;;;;
2024/04/14 02:20:34;;;;;;;4.1;1.4;;;;;;;;;;;;;
2024/04/14 02:23:00;;;;;;;4;1.8;;;;;;;;;;;;;
2024/04/14 02:25:25;;;;;;;2.3;1.4;;;;;;;;;;;;;
2024/04/14 02:27:50;;;;;;;3.4;1.7;;;;;;;;;;;;;
2024/04/14 02:30:15;;;;;;;2.7;1.6;;;;;;;;;;;;;
2024/04/14 02:32:40;;;;;;;4.2;2.2;;;;;;;;;;;;;
2024/04/14 02:35:06;;;;;;;5.1;2;;;;;;;;;;;;;
2024/04/14 02:37:30;;;;;;;4.3;2.2;;;;;;;;;;;;;
2024/04/14 02:39:56;;;;;;;3.5;1.9;;;;;;;;;;;;;
2024/04/14 02:42:21;;;;;;;2.2;1.9;;;;;;;;;;;;;
2024/04/14 02:44:46;;;;;;;2.3;1.7;;;;;;;;;;;;;
2024/04/14 02:47:11;;;;;;;2.1;1.8;;;;;;;;;;;;;
2024/04/14 02:49:36;;;;;;;2.6;1.4;;;;;;;;;;;;;
2024/04/14 02:52:01;;;;;;;1.9;1.4;;;;;;;;;;;;;
2024/04/14 02:54:26;;;;;;;2;1.5;;;;;;;;;;;;;
2024/04/14 02:56:52;;;;;;;3.1;1.8;;;;;;;;;;;;;
2024/04/14 02:59:17;;;;;;;1.9;1.4;;;;;;;;;;;;;
2024/04/14 03:01:42;;;;;;;1.4;1.3;;;;;;;;;;;;;
2024/04/14 03:04:07;;;;;;;2;1.4;;;;;;;;;;;;;
2024/04/14 03:06:32;;;;;;;2.3;1.4;;;;;;;;;;;;;
2024/04/14 03:08:57;;;;;;;1.7;1.4;;;;;;;;;;;;;
2024/04/14 03:11:22;;;;;;;2.4;1.4;;;;;;;;;;;;;
2024/04/14 03:13:47;;;;;;;1.4;1.3;;;;;;;;;;;;;
2024/04/14 03:16:13;;;;;;;1.5;1.3;;;;;;;;;;;;;
2024/04/14 03:18:37;;;;;;;3.5;1.3;;;;;;;;;;;;;
2024/04/14 03:21:03;;;;;;;2.8;1.3;;;;;;;;;;;;;
2024/04/14 03:23:28;;;;;;;2.3;1.4;;;;;;;;;;;;;
2024/04/14 03:25:53;;;;;;;4.1;1.5;;;;;;;;;;;;;
2024/04/14 03:28:19;;;;;;;3.5;1.5;;;;;;;;;;;;;
2024/04/14 03:30:44;;;;;;;3.3;1.4;;;;;;;;;;;;;
2024/04/14 03:33:08;;;;;;;2.1;1.3;;;;;;;;;;;;;
2024/04/14 03:35:33;;;;;;;1.9;1.4;;;;;;;;;;;;;
2024/04/14 03:37:58;;;;;;;2.1;1.3;;;;;;;;;;;;;
2024/04/14 03:40:24;;;;;;;1.8;1.1;;;;;;;;;;;;;
2024/04/14 03:42:49;;;;;;;2.6;1.4;;;;;;;;;;;;;
2024/04/14 03:45:14;;;;;;;2.3;1.4;;;;;;;;;;;;;
2024/04/14 03:47:39;;;;;;;2;1.4;;;;;;;;;;;;;
2024/04/14 03:50:04;;;;;;;2.6;1.5;;;;;;;;;;;;;
2024/04/14 03:52:29;;;;;;;2.6;1.4;;;;;;;;;;;;;
2024/04/14 03:54:54;;;;;;;2.7;1.8;;;;;;;;;;;;;
2024/04/14 03:57:19;;;;;;;2.7;1.5;;;;;;;;;;;;;
2024/04/14 03:59:45;;;;;;;2.7;1.7;;;;;;;;;;;;;
2024/04/14 04:02:31;;;;;;;3.7;1.7;;;;;;;;;;;;;
2024/04/14 04:04:56;;;;;;;2;1.4;;;;;;;;;;;;;
2024/04/14 04:07:22;;;;;;;1.3;1.2;;;;;;;;;;;;;
2024/04/14 04:09:46;;;;;;;3.1;1.3;;;;;;;;;;;;;
2024/04/14 04:12:11;;;;;;;2.3;1.2;;;;;;;;;;;;;
2024/04/14 04:14:36;;;;;;;1.8;1.2;;;;;;;;;;;;;
2024/04/14 04:17:02;;;;;;;3.7;1.8;;;;;;;;;;;;;
2024/04/14 04:19:27;;;;;;;1.7;1.4;;;;;;;;;;;;;
2024/04/14 04:21:52;;;;;;;3.2;1.7;;;;;;;;;;;;;
2024/04/14 04:24:17;;;;;;;16.7;7.8;;;;;;;;;;;;;
2024/04/14 04:26:42;;;;;;;20.1;10.3;;;;;;;;;;;;;
2024/04/14 04:29:07;;;;;;;14.5;8.4;;;;;;;;;;;;;
2024/04/14 04:31:32;;;;;;;18.9;10.4;;;;;;;;;;;;;
2024/04/14 04:33:57;;;;;;;21.3;11.7;;;;;;;;;;;;;
2024/04/14 04:36:22;;;;;;;15.4;8.6;;;;;;;;;;;;;
2024/04/14 04:38:48;;;;;;;16.3;8.2;;;;;;;;;;;;;
2024/04/14 04:41:13;;;;;;;13.9;7.7;;;;;;;;;;;;;
2024/04/14 04:43:38;;;;;;;12.1;7.4;;;;;;;;;;;;;
2024/04/14 04:46:04;;;;;;;12.4;7.3;;;;;;;;;;;;;
2024/04/14 04:48:29;;;;;;;11;7;;;;;;;;;;;;;
2024/04/14 04:50:55;;;;;;;10.6;6.4;;;;;;;;;;;;;
2024/04/14 04:53:19;;;;;;;8.1;5.3;;;;;;;;;;;;;
2024/04/14 04:55:44;;;;;;;9.3;5.4;;;;;;;;;;;;;
2024/04/14 04:58:09;;;;;;;8.6;4.9;;;;;;;;;;;;;
2024/04/14 05:00:35;;;;;;;5.8;4.4;;;;;;;;;;;;;
2024/04/14 05:02:59;;;;;;;4;2.9;;;;;;;;;;;;;
2024/04/14 05:05:24;;;;;;;4.4;3.3;;;;;;;;;;;;;
2024/04/14 05:07:50;;;;;;;5;3.1;;;;;;;;;;;;;
2024/04/14 05:10:15;;;;;;;11.9;8;;;;;;;;;;;;;
2024/04/14 05:12:40;;;;;;;6.8;5.4;;;;;;;;;;;;;
2024/04/14 05:15:06;;;;;;;10.4;4.8;;;;;;;;;;;;;
2024/04/14 05:17:30;;;;;;;5.1;3.5;;;;;;;;;;;;;
2024/04/14 05:19:55;;;;;;;7.5;4.1;;;;;;;;;;;;;
2024/04/14 05:22:21;;;;;;;4.6;3.1;;;;;;;;;;;;;
2024/04/14 05:24:46;;;;;;;5;3.1;;;;;;;;;;;;;
2024/04/14 05:27:11;;;;;;;5.3;3.3;;;;;;;;;;;;;
2024/04/14 05:29:36;;;;;;;6.3;3.3;;;;;;;;;;;;;
2024/04/14 05:32:01;;;;;;;7.1;2.7;;;;;;;;;;;;;
2024/04/14 05:34:26;;;;;;;5.1;2.6;;;;;;;;;;;;;
2024/04/14 05:36:51;;;;;;;3.1;2.5;;;;;;;;;;;;;
2024/04/14 05:39:16;;;;;;;4.8;3;;;;;;;;;;;;;
2024/04/14 05:41:41;;;;;;;6.8;4.2;;;;;;;;;;;;;
2024/04/14 05:44:06;;;;;;;6.3;4.7;;;;;;;;;;;;;
2024/04/14 05:46:31;;;;;;;9.3;4.3;;;;;;;;;;;;;
2024/04/14 05:48:57;;;;;;;4.4;3.1;;;;;;;;;;;;;
2024/04/14 05:51:23;;;;;;;6.3;2.1;;;;;;;;;;;;;
2024/04/14 05:53:48;;;;;;;3.1;1.7;;;;;;;;;;;;;
2024/04/14 05:56:12;;;;;;;4.7;2.8;;;;;;;;;;;;;
2024/04/14 05:58:37;;;;;;;7.1;6;;;;;;;;;;;;;
2024/04/14 06:01:02;;;;;;;5;3;;;;;;;;;;;;;
2024/04/14 06:03:27;;;;;;;8.3;5.8;;;;;;;;;;;;;
2024/04/14 06:05:52;;;;;;;3.5;2.2;;;;;;;;;;;;;
2024/04/14 06:08:18;;;;;;;3.6;2.1;;;;;;;;;;;;;
2024/04/14 06:10:43;;;;;;;4.4;2.1;;;;;;;;;;;;;
2024/04/14 06:13:08;;;;;;;5.1;2.2;;;;;;;;;;;;;
2024/04/14 06:15:33;;;;;;;3.1;1.9;;;;;;;;;;;;;
2024/04/14 06:17:59;;;;;;;2.2;1.6;;;;;;;;;;;;;
2024/04/14 06:20:23;;;;;;;1.8;0.9;;;;;;;;;;;;;
2024/04/14 06:22:48;;;;;;;2.7;1.2;;;;;;;;;;;;;
2024/04/14 06:25:13;;;;;;;1.2;0.7;;;;;;;;;;;;;
2024/04/14 06:27:38;;;;;;;1.5;0.8;;;;;;;;;;;;;
2024/04/14 06:30:04;;;;;;;1.4;0.6;;;;;;;;;;;;;
2024/04/14 06:32:29;;;;;;;0.9;0.6;;;;;;;;;;;;;
2024/04/14 06:34:54;;;;;;;1.8;1;;;;;;;;;;;;;
2024/04/14 06:37:19;;;;;;;2.1;0.9;;;;;;;;;;;;;
2024/04/14 06:39:44;;;;;;;2.2;1.2;;;;;;;;;;;;;
2024/04/14 06:42:09;;;;;;;4.6;3.6;;;;;;;;;;;;;
2024/04/14 06:44:34;;;;;;;2;1;;;;;;;;;;;;;
2024/04/14 06:47:00;;;;;;;1.7;0.8;;;;;;;;;;;;;
2024/04/14 06:49:25;;;;;;;2.4;1.1;;;;;;;;;;;;;
2024/04/14 06:51:50;;;;;;;1.4;1.3;;;;;;;;;;;;;
2024/04/14 06:54:15;;;;;;;1.6;1.1;;;;;;;;;;;;;
2024/04/14 06:56:40;;;;;;;1.1;1;;;;;;;;;;;;;
2024/04/14 06:59:05;;;;;;;3;1;;;;;;;;;;;;;
2024/04/14 07:01:31;;;;;;;1.2;1;;;;;;;;;;;;;
2024/04/14 07:03:56;;;;;;;0.9;0.7;;;;;;;;;;;;;
2024/04/14 07:06:21;;;;;;;1.3;0.7;;;;;;;;;;;;;
2024/04/14 07:08:46;;;;;;;2.7;0.9;;;;;;;;;;;;;
2024/04/14 07:11:11;;;;;;;1.6;0.8;;;;;;;;;;;;;
2024/04/14 07:13:36;;;;;;;2.9;0.7;;;;;;;;;;;;;
2024/04/14 07:16:01;;;;;;;0.7;0.7;;;;;;;;;;;;;
2024/04/14 07:18:26;;;;;;;1.2;0.8;;;;;;;;;;;;;
2024/04/14 07:20:52;;;;;;;2.5;0.7;;;;;;;;;;;;;
2024/04/14 07:23:17;;;;;;;1.2;0.6;;;;;;;;;;;;;
2024/04/14 07:25:42;;;;;;;1.1;0.5;;;;;;;;;;;;;
2024/04/14 07:28:07;;;;;;;2.1;0.7;;;;;;;;;;;;;
2024/04/14 07:30:34;;;;;;;0.7;0.7;;;;;;;;;;;;;
2024/04/14 07:32:57;;;;;;;0.5;0.5;;;;;;;;;;;;;
2024/04/14 07:35:22;;;;;;;0.6;0.6;;;;;;;;;;;;;
2024/04/14 07:37:48;;;;;;;1.1;0.7;;;;;;;;;;;;;
2024/04/14 07:40:13;;;;;;;1;0.7;;;;;;;;;;;;;
2024/04/14 07:42:38;;;;;;;1.5;0.6;;;;;;;;;;;;;
2024/04/14 07:45:03;;;;;;;1;0.6;;;;;;;;;;;;;
2024/04/14 07:47:30;;;;;;;2.3;1;;;;;;;;;;;;;
2024/04/14 07:49:53;;;;;;;1.2;0.6;;;;;;;;;;;;;
2024/04/14 07:52:20;;;;;;;1.4;0.6;;;;;;;;;;;;;
2024/04/14 07:54:43;;;;;;;1;0.5;;;;;;;;;;;;;
2024/04/14 07:57:09;;;;;;;1.1;0.7;;;;;;;;;;;;;
2024/04/14 07:59:34;;;;;;;0.6;0.6;;;;;;;;;;;;;
2024/04/14 08:01:59;;;;;;;2.1;0.6;;;;;;;;;;;;;
2024/04/14 08:04:24;;;;;;;2.4;0.6;;;;;;;;;;;;;
2024/04/14 08:06:49;;;;;;;1.6;0.6;;;;;;;;;;;;;
2024/04/14 08:09:14;;;;;;;1.4;0.6;;;;;;;;;;;;;
2024/04/14 08:11:39;;;;;;;0.6;0.6;;;;;;;;;;;;;
2024/04/14 08:14:08;;;;;;;0.7;0.7;;;;;;;;;;;;;
2024/04/14 08:16:29;;;;;;;1;0.5;;;;;;;;;;;;;
2024/04/14 08:18:54;;;;;;;1.2;0.6;;;;;;;;;;;;;
2024/04/14 08:21:21;;;;;;;0.4;0.4;;;;;;;;;;;;;
2024/04/14 08:23:45;;;;;;;1.7;0.7;;;;;;;;;;;;;
2024/04/14 08:26:10;;;;;;;0.7;0.6;;;;;;;;;;;;;
2024/04/14 08:28:35;;;;;;;1.6;0.8;;;;;;;;;;;;;
2024/04/14 08:31:00;;;;;;;0.7;0.7;;;;;;;;;;;;;
2024/04/14 08:33:25;;;;;;;1.6;0.5;;;;;;;;;;;;;
2024/04/14 08:35:50;;;;;;;1.8;0.5;;;;;;;;;;;;;
2024/04/14 08:38:16;;;;;;;0.8;0.7;;;;;;;;;;;;;
2024/04/14 08:40:41;;;;;;;2.3;0.8;;;;;;;;;;;;;
2024/04/14 08:43:06;;;;;;;1;0.8;;;;;;;;;;;;;
2024/04/14 08:45:31;;;;;;;0.7;0.7;;;;;;;;;;;;;
2024/04/14 08:47:56;;;;;;;1.4;0.6;;;;;;;;;;;;;
2024/04/14 08:50:21;;;;;;;0.6;0.6;;;;;;;;;;;;;
2024/04/14 08:52:46;;;;;;;0.5;0.5;;;;;;;;;;;;;
2024/04/14 08:55:11;;;;;;;0.7;0.7;;;;;;;;;;;;;
2024/04/14 08:57:36;;;;;;;1.3;0.6;;;;;;;;;;;;;
2024/04/14 09:00:01;;;;;;;0.4;0.4;;;;;;;;;;;;;
2024/04/14 09:02:28;;;;;;;7.2;0.9;;;;;;;;;;;;;
2024/04/14 09:04:52;;;;;;;0.7;0.7;;;;;;;;;;;;;
2024/04/14 09:07:17;;;;;;;0.4;0.4;;;;;;;;;;;;;
2024/04/14 09:09:42;;;;;;;0.9;0.6;;;;;;;;;;;;;
2024/04/14 09:12:07;;;;;;;0.4;0.4;;;;;;;;;;;;;
2024/04/14 09:14:32;;;;;;;0.7;0.7;;;;;;;;;;;;;
2024/04/14 09:16:57;;;;;;;0.6;0.5;;;;;;;;;;;;;
2024/04/14 09:19:22;;;;;;;0.6;0.4;;;;;;;;;;;;;
2024/04/14 09:21:47;;;;;;;0.7;0.5;;;;;;;;;;;;;
2024/04/14 09:24:12;;;;;;;0.6;0.5;;;;;;;;;;;;;
2024/04/14 09:26:37;;;;;;;0.5;0.5;;;;;;;;;;;;;
2024/04/14 09:29:02;;;;;;;2.1;0.9;;;;;;;;;;;;;
2024/04/14 09:31:28;;;;;;;1.3;0.7;;;;;;;;;;;;;
2024/04/14 09:33:53;;;;;;;2;0.8;;;;;;;;;;;;;
2024/04/14 09:36:18;;;;;;;0.5;0.5;;;;;;;;;;;;;
2024/04/14 09:38:43;;;;;;;0.9;0.7;;;;;;;;;;;;;
2024/04/14 09:41:08;;;;;;;0.8;0.5;;;;;;;;;;;;;
2024/04/14 09:43:34;;;;;;;3;0.8;;;;;;;;;;;;;
2024/04/14 09:45:59;;;;;;;0.7;0.6;;;;;;;;;;;;;
2024/04/14 09:48:24;;;;;;;1;0.8;;;;;;;;;;;;;
2024/04/14 09:50:48;;;;;;;1;0.7;;;;;;;;;;;;;
2024/04/14 09:53:14;;;;;;;1;0.7;;;;;;;;;;;;;
2024/04/14 09:55:39;;;;;;;0.6;0.6;;;;;;;;;;;;;
2024/04/14 09:58:04;;;;;;;1.5;0.5;;;;;;;;;;;;;
2024/04/14 10:00:29;;;;;;;1.2;0.9;;;;;;;;;;;;;
2024/04/14 10:02:54;;;;;;;1.4;0.8;;;;;;;;;;;;;
2024/04/14 10:05:19;;;;;;;1.9;1;;;;;;;;;;;;;
2024/04/14 10:07:45;;;;;;;3.7;0.8;;;;;;;;;;;;;
2024/04/14 10:10:10;;;;;;;1.2;0.9;;;;;;;;;;;;;
2024/04/14 10:12:35;;;;;;;2.1;0.8;;;;;;;;;;;;;
2024/04/14 10:15:00;;;;;;;1.7;0.7;;;;;;;;;;;;;
2024/04/14 10:17:25;;;;;;;0.8;0.8;;;;;;;;;;;;;
2024/04/14 10:19:50;;;;;;;1.8;0.9;;;;;;;;;;;;;
2024/04/14 10:22:15;;;;;;;2.6;1;;;;;;;;;;;;;
2024/04/14 10:24:41;;;;;;;1.4;0.8;;;;;;;;;;;;;
2024/04/14 10:27:06;;;;;;;2.5;0.8;;;;;;;;;;;;;
2024/04/14 10:29:31;;;;;;;2;1;;;;;;;;;;;;;
2024/04/14 10:31:56;;;;;;;1.7;1.2;;;;;;;;;;;;;
2024/04/14 10:34:21;;;;;;;2.8;0.9;;;;;;;;;;;;;
2024/04/14 10:36:46;;;;;;;1.3;1;;;;;;;;;;;;;
2024/04/14 10:39:11;;;;;;;1;0.9;;;;;;;;;;;;;
2024/04/14 10:41:36;;;;;;;1.7;1.1;;;;;;;;;;;;;
2024/04/14 10:44:01;;;;;;;1.1;1;;;;;;;;;;;;;
2024/04/14 10:46:29;;;;;;;1.4;1.1;;;;;;;;;;;;;
2024/04/14 10:48:54;;;;;;;1.6;0.9;;;;;;;;;;;;;
2024/04/14 10:51:19;;;;;;;3.8;1.2;;;;;;;;;;;;;
2024/04/14 10:53:44;;;;;;;3.4;1.2;;;;;;;;;;;;;
2024/04/14 10:56:09;;;;;;;2.3;1.1;;;;;;;;;;;;;
2024/04/14 10:58:35;;;;;;;2.3;0.8;;;;;;;;;;;;;
2024/04/14 11:00:59;;;;;;;2.6;0.8;;;;;;;;;;;;;
2024/04/14 11:03:25;;;;;;;2.5;1;;;;;;;;;;;;;
2024/04/14 11:05:50;;;;;;;2.7;0.9;;;;;;;;;;;;;
2024/04/14 11:08:15;;;;;;;2.6;1.1;;;;;;;;;;;;;
2024/04/14 11:10:40;;;;;;;3;1;;;;;;;;;;;;;
2024/04/14 11:13:05;;;;;;;1.9;1;;;;;;;;;;;;;
2024/04/14 11:15:30;;;;;;;2.1;1.1;;;;;;;;;;;;;
2024/04/14 11:17:55;;;;;;;2.6;1.1;;;;;;;;;;;;;
2024/04/14 11:20:21;;;;;;;1.1;1;;;;;;;;;;;;;
2024/04/14 11:22:45;;;;;;;1.2;1;;;;;;;;;;;;;
2024/04/14 11:25:11;;;;;;;1.3;1.1;;;;;;;;;;;;;
2024/04/14 11:27:36;;;;;;;3.9;1.3;;;;;;;;;;;;;
2024/04/14 11:30:01;;;;;;;2.2;1.2;;;;;;;;;;;;;
2024/04/14 11:32:33;;;;;;;1.2;0.9;;;;;;;;;;;;;
2024/04/14 11:34:52;;;;;;;1.8;1;;;;;;;;;;;;;
2024/04/14 11:37:16;;;;;;;2.2;1.1;;;;;;;;;;;;;
2024/04/14 11:39:44;;;;;;;1.1;1;;;;;;;;;;;;;
2024/04/14 11:42:06;;;;;;;2.7;1.1;;;;;;;;;;;;;
2024/04/14 11:44:32;;;;;;;2.2;1.1;;;;;;;;;;;;;
2024/04/14 11:46:57;;;;;;;2;1.3;;;;;;;;;;;;;
2024/04/14 11:49:22;;;;;;;2.1;1.4;;;;;;;;;;;;;
2024/04/14 11:51:47;;;;;;;2;1.2;;;;;;;;;;;;;
2024/04/14 11:54:12;;;;;;;2;1.2;;;;;;;;;;;;;
2024/04/14 11:56:37;;;;;;;2.2;1.2;;;;;;;;;;;;;
2024/04/14 11:59:02;;;;;;;1.4;1.1;;;;;;;;;;;;;
2024/04/14 12:01:27;;;;;;;3.3;1.1;;;;;;;;;;;;;
2024/04/14 12:03:53;;;;;;;2.6;1.3;;;;;;;;;;;;;
2024/04/14 12:06:18;;;;;;;2.3;1.1;;;;;;;;;;;;;
2024/04/14 12:08:43;;;;;;;2.1;1;;;;;;;;;;;;;
2024/04/14 12:11:08;;;;;;;2.3;1;;;;;;;;;;;;;
2024/04/14 12:13:33;;;;;;;3;1.3;;;;;;;;;;;;;
2024/04/14 12:15:58;;;;;;;2.8;1.1;;;;;;;;;;;;;
2024/04/14 12:18:23;;;;;;;2.4;1.3;;;;;;;;;;;;;
2024/04/14 12:20:48;;;;;;;1.1;0.9;;;;;;;;;;;;;
2024/04/14 12:23:13;;;;;;;1.7;1;;;;;;;;;;;;;
2024/04/14 12:25:39;;;;;;;2.2;1.3;;;;;;;;;;;;;
2024/04/14 12:28:03;;;;;;;2.9;1.1;;;;;;;;;;;;;
2024/04/14 12:30:29;;;;;;;1.4;0.9;;;;;;;;;;;;;
2024/04/14 12:32:54;;;;;;;3.5;1;;;;;;;;;;;;;
2024/04/14 12:35:19;;;;;;;3.1;1;;;;;;;;;;;;;
2024/04/14 12:37:45;;;;;;;2.7;1.1;;;;;;;;;;;;;
2024/04/14 12:40:10;;;;;;;2.1;1.1;;;;;;;;;;;;;
2024/04/14 12:42:35;;;;;;;1.5;1.4;;;;;;;;;;;;;
2024/04/14 12:45:00;;;;;;;1.8;1.2;;;;;;;;;;;;;
2024/04/14 12:47:25;;;;;;;1.7;1;;;;;;;;;;;;;
2024/04/14 12:49:50;;;;;;;2.7;1.3;;;;;;;;;;;;;
2024/04/14 12:52:15;;;;;;;2;1.2;;;;;;;;;;;;;
2024/04/14 12:54:40;;;;;;;2.5;1.5;;;;;;;;;;;;;
2024/04/14 12:57:05;;;;;;;2;1;;;;;;;;;;;;;
2024/04/14 12:59:30;;;;;;;2.1;1.3;;;;;;;;;;;;;
2024/04/14 13:01:55;;;;;;;1.4;1;;;;;;;;;;;;;
2024/04/14 13:04:21;;;;;;;1.6;1.1;;;;;;;;;;;;;
2024/04/14 13:06:45;;;;;;;1.7;1.1;;;;;;;;;;;;;
2024/04/14 13:09:11;;;;;;;2.3;1.1;;;;;;;;;;;;;
2024/04/14 13:11:36;;;;;;;2.4;1.2;;;;;;;;;;;;;
2024/04/14 13:14:01;;;;;;;2.9;1.1;;;;;;;;;;;;;
2024/04/14 13:16:26;;;;;;;1.7;1.1;;;;;;;;;;;;;
2024/04/14 13:18:51;;;;;;;1.4;1.1;;;;;;;;;;;;;
2024/04/14 13:21:17;;;;;;;2.9;1.1;;;;;;;;;;;;;
2024/04/14 13:23:44;;;;;;;2.7;1.2;;;;;;;;;;;;;
2024/04/14 13:26:06;;;;;;;2.3;1.1;;;;;;;;;;;;;
2024/04/14 13:28:32;;;;;;;2.9;1.2;;;;;;;;;;;;;
2024/04/14 13:30:56;;;;;;;2.7;0.9;;;;;;;;;;;;;
2024/04/14 13:33:22;;;;;;;2.7;1.1;;;;;;;;;;;;;
2024/04/14 13:35:47;;;;;;;3.9;1.3;;;;;;;;;;;;;
2024/04/14 13:38:12;;;;;;;5.8;1.1;;;;;;;;;;;;;
2024/04/14 13:40:37;;;;;;;1.1;1;;;;;;;;;;;;;
2024/04/14 13:43:02;;;;;;;2.5;0.9;;;;;;;;;;;;;
2024/04/14 13:45:27;;;;;;;2.5;1;;;;;;;;;;;;;
2024/04/14 13:47:52;;;;;;;1.5;0.9;;;;;;;;;;;;;
2024/04/14 13:50:17;;;;;;;3;1.3;;;;;;;;;;;;;
2024/04/14 13:52:43;;;;;;;2.3;1.1;;;;;;;;;;;;;
2024/04/14 13:55:07;;;;;;;1.2;1;;;;;;;;;;;;;
2024/04/14 13:57:32;;;;;;;2.8;1.1;;;;;;;;;;;;;
2024/04/14 13:59:58;;;;;;;1.2;1.1;;;;;;;;;;;;;
2024/04/14 14:02:23;;;;;;;3.1;1.2;;;;;;;;;;;;;
2024/04/14 14:04:48;;;;;;;4;1;;;;;;;;;;;;;
2024/04/14 14:07:14;;;;;;;1.6;1.1;;;;;;;;;;;;;
2024/04/14 14:09:39;;;;;;;1.5;1.1;;;;;;;;;;;;;
2024/04/14 14:12:05;;;;;;;2.8;1;;;;;;;;;;;;;
2024/04/14 14:14:29;;;;;;;1.9;0.9;;;;;;;;;;;;;
2024/04/14 14:16:54;;;;;;;2.9;0.8;;;;;;;;;;;;;
2024/04/14 14:19:20;;;;;;;1.1;0.9;;;;;;;;;;;;;
2024/04/14 14:21:44;;;;;;;2.8;1.1;;;;;;;;;;;;;
2024/04/14 14:24:09;;;;;;;1.3;1;;;;;;;;;;;;;
2024/04/14 14:26:35;;;;;;;1.4;1;;;;;;;;;;;;;
2024/04/14 14:29:00;;;;;;;1.5;0.8;;;;;;;;;;;;;
2024/04/14 14:31:25;;;;;;;1.9;1.1;;;;;;;;;;;;;
2024/04/14 14:36:37;;;;;;;1.5;1;;;;;;;;;;;;;
2024/04/14 14:38:40;;;;;;;2.1;1.1;;;;;;;;;;;;;
2024/04/14 14:41:06;;;;;;;1.8;0.9;;;;;;;;;;;;;
2024/04/14 14:43:30;;;;;;;2.1;1.1;;;;;;;;;;;;;
2024/04/14 14:45:56;;;;;;;3.9;1.1;;;;;;;;;;;;;
2024/04/14 14:48:21;;;;;;;1.7;0.9;;;;;;;;;;;;;
2024/04/14 14:50:46;;;;;;;1.4;1;;;;;;;;;;;;;
2024/04/14 14:53:11;;;;;;;2;0.9;;;;;;;;;;;;;
2024/04/14 14:55:37;;;;;;;0.8;0.8;;;;;;;;;;;;;
2024/04/14 14:58:01;;;;;;;2.7;0.9;;;;;;;;;;;;;
2024/04/14 15:00:26;;;;;;;1.4;0.9;;;;;;;;;;;;;
2024/04/14 15:02:51;;;;;;;1.1;1;;;;;;;;;;;;;
2024/04/14 15:05:16;;;;;;;1.8;0.9;;;;;;;;;;;;;
2024/04/14 15:07:42;;;;;;;2.5;1;;;;;;;;;;;;;
2024/04/14 15:10:07;;;;;;;2;1.2;;;;;;;;;;;;;
2024/04/14 15:12:32;;;;;;;2.2;1.1;;;;;;;;;;;;;
2024/04/14 15:14:57;;;;;;;2.5;1;;;;;;;;;;;;;
2024/04/14 15:17:22;;;;;;;2.5;1.1;;;;;;;;;;;;;
2024/04/14 15:19:47;;;;;;;1.4;0.9;;;;;;;;;;;;;
2024/04/14 15:22:13;;;;;;;2.7;0.9;;;;;;;;;;;;;
2024/04/14 15:24:40;;;;;;;2.7;0.9;;;;;;;;;;;;;
2024/04/14 15:27:02;;;;;;;1.3;0.8;;;;;;;;;;;;;
2024/04/14 15:29:28;;;;;;;1.9;0.9;;;;;;;;;;;;;
2024/04/14 15:31:52;;;;;;;2.5;1;;;;;;;;;;;;;
2024/04/14 15:34:18;;;;;;;2.1;1;;;;;;;;;;;;;
2024/04/14 15:36:43;;;;;;;3.1;0.9;;;;;;;;;;;;;
2024/04/14 15:39:08;;;;;;;2.7;1;;;;;;;;;;;;;
2024/04/14 15:41:33;;;;;;;2.4;1;;;;;;;;;;;;;
2024/04/14 15:43:58;;;;;;;2.2;0.8;;;;;;;;;;;;;
2024/04/14 15:46:23;;;;;;;1.4;1;;;;;;;;;;;;;
2024/04/14 15:48:48;;;;;;;2.2;1.2;;;;;;;;;;;;;
2024/04/14 15:51:13;;;;;;;1.3;1.1;;;;;;;;;;;;;
2024/04/14 15:53:39;;;;;;;1.6;1.1;;;;;;;;;;;;;
2024/04/14 15:56:06;;;;;;;1.2;1;;;;;;;;;;;;;
2024/04/14 15:58:29;;;;;;;1.6;1.2;;;;;;;;;;;;;
2024/04/14 16:00:54;;;;;;;1.9;0.8;;;;;;;;;;;;;
2024/04/14 16:03:19;;;;;;;3;1;;;;;;;;;;;;;
2024/04/14 16:05:44;;;;;;;2.2;0.8;;;;;;;;;;;;;
2024/04/14 16:08:09;;;;;;;1.2;0.9;;;;;;;;;;;;;
2024/04/14 16:10:35;;;;;;;2.3;1;;;;;;;;;;;;;
2024/04/14 16:12:59;;;;;;;2.3;1.2;;;;;;;;;;;;;
2024/04/14 16:15:24;;;;;;;3.2;1.2;;;;;;;;;;;;;
2024/04/14 16:17:49;;;;;;;1.6;1;;;;;;;;;;;;;
2024/04/14 16:20:15;;;;;;;2.1;1;;;;;;;;;;;;;
2024/04/14 16:22:40;;;;;;;1.4;1.1;;;;;;;;;;;;;
2024/04/14 16:25:05;;;;;;;1.2;1.1;;;;;;;;;;;;;
2024/04/14 16:27:31;;;;;;;3.4;1.4;;;;;;;;;;;;;
2024/04/14 16:29:55;;;;;;;1.8;1.1;;;;;;;;;;;;;
2024/04/14 16:32:20;;;;;;;2.8;1.4;;;;;;;;;;;;;
2024/04/14 16:34:45;;;;;;;2.1;1;;;;;;;;;;;;;
2024/04/14 16:37:10;;;;;;;2.5;1.8;;;;;;;;;;;;;
2024/04/14 16:39:36;;;;;;;1.4;1.1;;;;;;;;;;;;;
2024/04/14 16:42:01;;;;;;;2.6;1;;;;;;;;;;;;;
2024/04/14 16:44:26;;;;;;;2.2;1;;;;;;;;;;;;;
2024/04/14 16:46:51;;;;;;;2.3;1;;;;;;;;;;;;;
2024/04/14 16:49:17;;;;;;;1.4;1;;;;;;;;;;;;;
2024/04/14 16:51:43;;;;;;;1.9;1;;;;;;;;;;;;;
2024/04/14 16:54:06;;;;;;;2.6;1.4;;;;;;;;;;;;;
2024/04/14 16:56:31;;;;;;;2.7;1.3;;;;;;;;;;;;;
2024/04/14 16:58:57;;;;;;;1.7;1.4;;;;;;;;;;;;;
2024/04/14 17:01:22;;;;;;;4.1;1;;;;;;;;;;;;;
2024/04/14 17:03:47;;;;;;;1.2;1.1;;;;;;;;;;;;;
2024/04/14 17:06:12;;;;;;;1.1;1;;;;;;;;;;;;;
2024/04/14 17:08:37;;;;;;;1.9;1;;;;;;;;;;;;;
2024/04/14 17:11:02;;;;;;;1.8;1.1;;;;;;;;;;;;;
2024/04/14 17:13:30;;;;;;;1.4;1.1;;;;;;;;;;;;;
2024/04/14 17:15:52;;;;;;;1.2;1.1;;;;;;;;;;;;;
2024/04/14 17:18:17;;;;;;;1.6;1;;;;;;;;;;;;;
2024/04/14 17:20:43;;;;;;;1.9;1;;;;;;;;;;;;;
2024/04/14 17:23:08;;;;;;;2.1;1.2;;;;;;;;;;;;;
2024/04/14 17:25:33;;;;;;;1.9;1.2;;;;;;;;;;;;;
2024/04/14 17:27:59;;;;;;;2.6;1;;;;;;;;;;;;;
2024/04/14 17:30:24;;;;;;;1.1;1;;;;;;;;;;;;;
2024/04/14 17:32:49;;;;;;;1.2;1.1;;;;;;;;;;;;;
2024/04/14 17:35:14;;;;;;;1.4;1.1;;;;;;;;;;;;;
2024/04/14 17:37:40;;;;;;;3;1.3;;;;;;;;;;;;;
2024/04/14 17:40:05;;;;;;;1.5;1.1;;;;;;;;;;;;;
2024/04/14 17:42:30;;;;;;;1.5;1.1;;;;;;;;;;;;;
2024/04/14 17:44:54;;;;;;;2.2;1.2;;;;;;;;;;;;;
2024/04/14 17:47:21;;;;;;;2.5;1.1;;;;;;;;;;;;;
2024/04/14 17:49:45;;;;;;;3.6;1.1;;;;;;;;;;;;;
2024/04/14 17:52:10;;;;;;;1.6;1;;;;;;;;;;;;;
2024/04/14 17:54:36;;;;;;;1.4;1.1;;;;;;;;;;;;;
2024/04/14 17:57:01;;;;;;;1.4;1.1;;;;;;;;;;;;;
2024/04/14 17:59:26;;;;;;;1.5;0.9;;;;;;;;;;;;;
2024/04/14 18:01:53;;;;;;;2.2;1.1;;;;;;;;;;;;;
2024/04/14 18:04:16;;;;;;;1.3;1;;;;;;;;;;;;;
2024/04/14 18:06:42;;;;;;;3.6;1.7;;;;;;;;;;;;;
2024/04/14 18:09:07;;;;;;;2.5;1.9;;;;;;;;;;;;;
2024/04/14 18:11:33;;;;;;;2.2;1.6;;;;;;;;;;;;;
2024/04/14 18:13:58;;;;;;;2.6;1.3;;;;;;;;;;;;;
2024/04/14 18:16:22;;;;;;;3.4;1.4;;;;;;;;;;;;;
2024/04/14 18:18:47;;;;;;;1.8;1.3;;;;;;;;;;;;;
2024/04/14 18:21:13;;;;;;;3.7;1.3;;;;;;;;;;;;;
2024/04/14 18:23:37;;;;;;;2.7;1.3;;;;;;;;;;;;;
2024/04/14 18:26:04;;;;;;;2.4;1.4;;;;;;;;;;;;;
2024/04/14 18:28:28;;;;;;;4.3;1.5;;;;;;;;;;;;;
2024/04/14 18:30:53;;;;;;;2.2;1.4;;;;;;;;;;;;;
2024/04/14 18:33:20;;;;;;;5.1;1.8;;;;;;;;;;;;;
2024/04/14 18:35:45;;;;;;;3.9;1.6;;;;;;;;;;;;;
2024/04/14 18:38:10;;;;;;;3.8;1.9;;;;;;;;;;;;;
2024/04/14 18:40:35;;;;;;;4.5;1.7;;;;;;;;;;;;;
2024/04/14 18:43:00;;;;;;;3.9;1.8;;;;;;;;;;;;;
2024/04/14 18:45:25;;;;;;;3.3;1.6;;;;;;;;;;;;;
2024/04/14 18:47:51;;;;;;;3.5;1.7;;;;;;;;;;;;;
2024/04/14 18:50:16;;;;;;;3.1;1.9;;;;;;;;;;;;;
2024/04/14 18:52:41;;;;;;;4;1.7;;;;;;;;;;;;;
2024/04/14 18:55:06;;;;;;;4.4;2;;;;;;;;;;;;;
2024/04/14 18:57:31;;;;;;;3.9;1.7;;;;;;;;;;;;;
2024/04/14 18:59:56;;;;;;;2.2;1.5;;;;;;;;;;;;;
2024/04/14 19:02:21;;;;;;;2.7;1.5;;;;;;;;;;;;;
2024/04/14 19:04:46;;;;;;;2.6;1.6;;;;;;;;;;;;;
2024/04/14 19:07:12;;;;;;;5.2;2.6;;;;;;;;;;;;;
2024/04/14 19:09:37;;;;;;;2.3;2.1;;;;;;;;;;;;;
2024/04/14 19:12:03;;;;;;;5.4;2.1;;;;;;;;;;;;;
2024/04/14 19:14:27;;;;;;;1.9;1.7;;;;;;;;;;;;;
2024/04/14 19:16:52;;;;;;;7.2;1.9;;;;;;;;;;;;;
2024/04/14 19:19:18;;;;;;;3.2;1.8;;;;;;;;;;;;;
2024/04/14 19:21:42;;;;;;;3.5;2.2;;;;;;;;;;;;;
2024/04/14 19:24:08;;;;;;;5;2.8;;;;;;;;;;;;;
2024/04/14 19:26:32;;;;;;;3.7;2.7;;;;;;;;;;;;;
2024/04/14 19:28:58;;;;;;;4.7;2.2;;;;;;;;;;;;;
2024/04/14 19:31:23;;;;;;;3;2.3;;;;;;;;;;;;;
2024/04/14 19:33:48;;;;;;;4;2.6;;;;;;;;;;;;;
2024/04/14 19:36:13;;;;;;;3.9;2.3;;;;;;;;;;;;;
2024/04/14 19:38:38;;;;;;;3.9;2;;;;;;;;;;;;;
2024/04/14 19:41:03;;;;;;;3.4;1.8;;;;;;;;;;;;;
2024/04/14 19:43:28;;;;;;;3.4;1.8;;;;;;;;;;;;;
2024/04/14 19:45:53;;;;;;;6.7;2.4;;;;;;;;;;;;;
2024/04/14 19:48:18;;;;;;;3.1;1.6;;;;;;;;;;;;;
2024/04/14 19:50:44;;;;;;;5;2.1;;;;;;;;;;;;;
2024/04/14 19:53:08;;;;;;;2.5;2;;;;;;;;;;;;;
2024/04/14 19:55:33;;;;;;;7.6;2.3;;;;;;;;;;;;;
2024/04/14 19:57:59;;;;;;;4.4;2.1;;;;;;;;;;;;;
2024/04/14 20:00:23;;;;;;;2.3;1.5;;;;;;;;;;;;;
2024/04/14 20:02:49;;;;;;;2.2;1.5;;;;;;;;;;;;;
2024/04/14 20:05:14;;;;;;;6.6;2;;;;;;;;;;;;;
2024/04/14 20:07:39;;;;;;;2.2;1.8;;;;;;;;;;;;;
2024/04/14 20:10:06;;;;;;;1.8;1.6;;;;;;;;;;;;;
2024/04/14 20:12:29;;;;;;;5.1;2.9;;;;;;;;;;;;;
2024/04/14 20:14:56;;;;;;;5.1;3.1;;;;;;;;;;;;;
2024/04/14 20:17:20;;;;;;;4.5;2.9;;;;;;;;;;;;;
2024/04/14 20:19:44;;;;;;;3.8;2.2;;;;;;;;;;;;;
2024/04/14 20:22:10;;;;;;;2.8;1.6;;;;;;;;;;;;;
2024/04/14 20:24:35;;;;;;;3.2;2.1;;;;;;;;;;;;;
2024/04/14 20:27:00;;;;;;;2.1;1.8;;;;;;;;;;;;;
2024/04/14 20:29:25;;;;;;;2.4;1.7;;;;;;;;;;;;;
2024/04/14 20:31:50;;;;;;;2.9;1.9;;;;;;;;;;;;;
2024/04/14 20:34:15;;;;;;;1.9;1.5;;;;;;;;;;;;;
2024/04/14 20:36:40;;;;;;;3.2;2;;;;;;;;;;;;;